createdAt,value
2018-09-28T00:00:16.785Z,54.00
2018-09-28T00:00:48.616Z,54.00
2018-09-28T00:01:20.421Z,53.90
2018-09-28T00:01:52.415Z,54.00
2018-09-28T00:02:24.439Z,54.10
2018-09-28T00:02:56.279Z,54.00
2018-09-28T00:03:28.110Z,54.00
2018-09-28T00:03:59.980Z,54.00
2018-09-28T00:04:31.832Z,54.20
2018-09-28T00:05:03.659Z,54.60
2018-09-28T00:05:35.768Z,53.90
2018-09-28T00:06:07.781Z,53.90
2018-09-28T00:06:39.648Z,54.00
2018-09-28T00:07:11.434Z,54.00
2018-09-28T00:07:43.373Z,54.00
2018-09-28T00:08:15.250Z,54.00
2018-09-28T00:08:47.174Z,54.10
2018-09-28T00:09:19.043Z,54.00
2018-09-28T00:09:50.901Z,53.90
2018-09-28T00:10:22.789Z,54.00
2018-09-28T00:10:54.592Z,54.00
2018-09-28T00:11:26.461Z,54.00
2018-09-28T00:11:58.290Z,53.90
2018-09-28T00:12:30.339Z,54.00
2018-09-28T00:13:02.333Z,53.90
2018-09-28T00:13:34.223Z,53.90
2018-09-28T00:14:06.019Z,54.00
2018-09-28T00:14:37.824Z,54.10
2018-09-28T00:15:09.636Z,54.00
2018-09-28T00:15:41.469Z,54.00
2018-09-28T00:16:13.436Z,53.90
2018-09-28T00:16:45.277Z,54.00
2018-09-28T00:17:17.120Z,54.00
2018-09-28T00:17:48.898Z,54.00
2018-09-28T00:18:20.818Z,53.90
2018-09-28T00:18:52.680Z,53.90
2018-09-28T00:19:24.638Z,54.50
2018-09-28T00:19:56.461Z,53.90
2018-09-28T00:20:28.384Z,54.10
2018-09-28T00:21:00.501Z,54.00
2018-09-28T00:21:32.305Z,53.90
2018-09-28T00:22:04.365Z,54.00
2018-09-28T00:22:36.261Z,54.00
2018-09-28T00:23:08.233Z,54.10
2018-09-28T00:23:40.161Z,54.00
2018-09-28T00:24:12.172Z,54.40
2018-09-28T00:24:43.946Z,54.00
2018-09-28T00:25:16.042Z,54.00
2018-09-28T00:25:47.958Z,54.00
2018-09-28T00:26:19.923Z,54.00
2018-09-28T00:26:51.731Z,54.00
2018-09-28T00:27:23.562Z,54.00
2018-09-28T00:27:55.386Z,54.10
2018-09-28T00:28:27.266Z,54.00
2018-09-28T00:28:59.113Z,53.90
2018-09-28T00:29:30.940Z,54.00
2018-09-28T00:30:02.760Z,54.00
2018-09-28T00:30:34.689Z,54.00
2018-09-28T00:31:06.510Z,54.00
2018-09-28T00:31:38.370Z,54.00
2018-09-28T00:32:10.289Z,54.00
2018-09-28T00:32:42.130Z,53.90
2018-09-28T00:33:13.965Z,54.00
2018-09-28T00:33:45.937Z,53.90
2018-09-28T00:34:17.760Z,54.00
2018-09-28T00:34:49.693Z,53.90
2018-09-28T00:35:21.559Z,53.90
2018-09-28T00:35:53.392Z,53.90
2018-09-28T00:36:25.681Z,53.90
2018-09-28T00:36:57.582Z,54.00
2018-09-28T00:37:29.477Z,54.00
2018-09-28T00:38:01.290Z,54.00
2018-09-28T00:38:33.212Z,54.00
2018-09-28T00:39:05.011Z,54.40
2018-09-28T00:39:36.944Z,53.80
2018-09-28T00:40:08.761Z,53.80
2018-09-28T00:40:40.609Z,53.90
2018-09-28T00:41:12.401Z,53.80
2018-09-28T00:41:44.408Z,53.80
2018-09-28T00:42:16.349Z,53.90
2018-09-28T00:42:48.380Z,53.90
2018-09-28T00:43:20.436Z,53.90
2018-09-28T00:43:52.372Z,53.90
2018-09-28T00:44:24.179Z,54.00
2018-09-28T00:44:56.130Z,54.00
2018-09-28T00:45:28.061Z,54.20
2018-09-28T00:45:59.853Z,54.00
2018-09-28T00:46:31.648Z,53.90
2018-09-28T00:47:03.508Z,53.80
2018-09-28T00:47:35.338Z,54.50
2018-09-28T00:48:07.186Z,53.90
2018-09-28T00:48:39.002Z,53.90
2018-09-28T00:49:10.893Z,53.90
2018-09-28T00:49:43.040Z,53.80
2018-09-28T00:50:14.853Z,53.80
2018-09-28T00:50:46.770Z,53.90
2018-09-28T00:51:18.785Z,53.80
2018-09-28T00:51:50.902Z,53.80
2018-09-28T00:52:23.053Z,53.80
2018-09-28T00:52:54.889Z,53.80
2018-09-28T00:53:26.722Z,53.90
2018-09-28T00:53:58.489Z,53.80
2018-09-28T00:54:30.405Z,53.80
2018-09-28T00:55:02.220Z,53.80
2018-09-28T00:55:34.029Z,53.80
2018-09-28T00:56:05.961Z,53.80
2018-09-28T00:56:37.921Z,53.90
2018-09-28T00:57:09.709Z,53.90
2018-09-28T00:57:41.670Z,53.80
2018-09-28T00:58:13.547Z,53.80
2018-09-28T00:58:45.470Z,53.90
2018-09-28T00:59:17.611Z,53.90
2018-09-28T00:59:49.409Z,53.30
2018-09-28T01:00:21.191Z,53.90
2018-09-28T01:00:53.019Z,53.90
2018-09-28T01:01:25.010Z,53.80
2018-09-28T01:01:56.951Z,53.80
2018-09-28T01:02:28.996Z,54.50
2018-09-28T01:03:00.894Z,54.20
2018-09-28T01:03:33.002Z,53.50
2018-09-28T01:04:04.982Z,54.00
2018-09-28T01:04:36.840Z,53.90
2018-09-28T01:05:08.658Z,54.10
2018-09-28T01:05:40.520Z,54.00
2018-09-28T01:06:12.328Z,54.00
2018-09-28T01:06:44.219Z,54.00
2018-09-28T01:07:16.092Z,54.00
2018-09-28T01:07:47.973Z,53.50
2018-09-28T01:08:19.789Z,54.00
2018-09-28T01:08:51.616Z,54.10
2018-09-28T01:09:23.470Z,54.10
2018-09-28T01:09:55.419Z,54.00
2018-09-28T01:10:27.205Z,54.00
2018-09-28T01:10:59.109Z,54.00
2018-09-28T01:11:31.038Z,54.00
2018-09-28T01:12:02.809Z,54.00
2018-09-28T01:12:34.748Z,54.00
2018-09-28T01:13:06.796Z,54.00
2018-09-28T01:13:38.610Z,54.00
2018-09-28T01:14:10.468Z,54.00
2018-09-28T01:14:42.379Z,54.00
2018-09-28T01:15:14.208Z,54.10
2018-09-28T01:15:46.039Z,54.30
2018-09-28T01:16:17.971Z,54.00
2018-09-28T01:16:49.800Z,54.00
2018-09-28T01:17:21.692Z,54.00
2018-09-28T01:17:53.543Z,54.00
2018-09-28T01:18:25.397Z,54.10
2018-09-28T01:18:57.267Z,54.10
2018-09-28T01:19:29.077Z,54.10
2018-09-28T01:20:01.189Z,54.00
2018-09-28T01:20:33.087Z,54.00
2018-09-28T01:21:04.911Z,54.20
2018-09-28T01:21:36.848Z,54.00
2018-09-28T01:22:08.722Z,54.00
2018-09-28T01:22:40.524Z,54.10
2018-09-28T01:23:12.630Z,54.00
2018-09-28T01:23:44.462Z,54.00
2018-09-28T01:24:16.499Z,54.00
2018-09-28T01:24:48.378Z,54.00
2018-09-28T01:25:20.163Z,54.60
2018-09-28T01:25:51.989Z,54.00
2018-09-28T01:26:23.917Z,54.00
2018-09-28T01:26:55.797Z,54.00
2018-09-28T01:27:27.625Z,54.00
2018-09-28T01:27:59.433Z,54.00
2018-09-28T01:28:31.417Z,54.10
2018-09-28T01:29:03.208Z,54.10
2018-09-28T01:29:34.999Z,54.00
2018-09-28T01:30:06.978Z,54.10
2018-09-28T01:30:38.868Z,54.10
2018-09-28T01:31:10.633Z,54.10
2018-09-28T01:31:42.602Z,54.10
2018-09-28T01:32:14.478Z,54.10
2018-09-28T01:32:46.468Z,54.40
2018-09-28T01:33:18.361Z,54.10
2018-09-28T01:33:50.257Z,53.70
2018-09-28T01:34:22.029Z,54.10
2018-09-28T01:34:53.896Z,54.00
2018-09-28T01:35:25.787Z,54.00
2018-09-28T01:35:57.614Z,54.00
2018-09-28T01:36:29.371Z,54.10
2018-09-28T01:37:01.157Z,53.80
2018-09-28T01:37:33.069Z,54.10
2018-09-28T01:38:04.920Z,54.10
2018-09-28T01:38:36.761Z,54.10
2018-09-28T01:39:09.140Z,54.00
2018-09-28T01:39:40.973Z,54.10
2018-09-28T01:40:12.774Z,54.00
2018-09-28T01:40:44.683Z,54.00
2018-09-28T01:41:16.591Z,54.00
2018-09-28T01:41:48.427Z,54.60
2018-09-28T01:42:20.228Z,54.50
2018-09-28T01:42:52.078Z,54.00
2018-09-28T01:43:23.916Z,54.00
2018-09-28T01:43:55.695Z,54.00
2018-09-28T01:44:27.526Z,54.10
2018-09-28T01:44:59.347Z,54.00
2018-09-28T01:45:31.176Z,54.00
2018-09-28T01:46:03.145Z,54.10
2018-09-28T01:46:35.045Z,54.10
2018-09-28T01:47:07.176Z,54.00
2018-09-28T01:47:38.983Z,54.00
2018-09-28T01:48:11.077Z,54.00
2018-09-28T01:48:43.101Z,54.00
2018-09-28T01:49:14.947Z,54.00
2018-09-28T01:49:46.759Z,54.00
2018-09-28T01:50:18.616Z,54.10
2018-09-28T01:50:50.498Z,54.00
2018-09-28T01:51:22.532Z,54.00
2018-09-28T01:51:54.454Z,54.10
2018-09-28T01:52:26.256Z,54.30
2018-09-28T01:52:58.058Z,54.30
2018-09-28T01:53:30.065Z,54.20
2018-09-28T01:54:01.898Z,54.20
2018-09-28T01:54:33.744Z,54.30
2018-09-28T01:55:05.564Z,54.40
2018-09-28T01:55:37.399Z,54.50
2018-09-28T01:56:09.255Z,54.40
2018-09-28T01:56:41.028Z,54.40
2018-09-28T01:57:12.995Z,54.40
2018-09-28T01:57:44.825Z,54.40
2018-09-28T01:58:16.856Z,54.30
2018-09-28T01:58:48.910Z,54.30
2018-09-28T01:59:20.976Z,54.30
2018-09-28T01:59:52.772Z,54.20
2018-09-28T02:00:24.544Z,54.50
2018-09-28T02:00:56.456Z,57.50
2018-09-28T02:01:28.300Z,56.50
2018-09-28T02:02:00.143Z,56.00
2018-09-28T02:02:31.928Z,55.70
2018-09-28T02:03:03.747Z,55.20
2018-09-28T02:03:35.546Z,55.40
2018-09-28T02:04:07.404Z,55.40
2018-09-28T02:04:39.234Z,55.40
2018-09-28T02:05:11.094Z,55.00
2018-09-28T02:05:42.946Z,55.20
2018-09-28T02:06:14.813Z,56.20
2018-09-28T02:06:46.704Z,57.00
2018-09-28T02:07:18.530Z,56.30
2018-09-28T02:07:50.456Z,56.30
2018-09-28T02:08:22.293Z,56.60
2018-09-28T02:08:54.071Z,57.10
2018-09-28T02:09:25.948Z,57.30
2018-09-28T02:09:57.851Z,58.20
2018-09-28T02:10:29.750Z,58.70
2018-09-28T02:11:01.528Z,59.20
2018-09-28T02:11:33.508Z,58.00
2018-09-28T02:12:05.333Z,57.50
2018-09-28T02:12:37.212Z,57.50
2018-09-28T02:13:09.245Z,57.40
2018-09-28T02:13:41.028Z,57.20
2018-09-28T02:14:12.859Z,57.10
2018-09-28T02:14:44.794Z,57.60
2018-09-28T02:15:16.592Z,57.90
2018-09-28T02:15:48.420Z,57.80
2018-09-28T02:16:20.604Z,58.50
2018-09-28T02:16:52.492Z,58.80
2018-09-28T02:17:24.501Z,59.20
2018-09-28T02:17:56.605Z,59.00
2018-09-28T02:18:28.595Z,59.90
2018-09-28T02:19:00.360Z,59.80
2018-09-28T02:19:32.254Z,59.30
2018-09-28T02:20:04.061Z,59.00
2018-09-28T02:20:35.874Z,59.00
2018-09-28T02:21:07.916Z,59.00
2018-09-28T02:21:39.735Z,59.00
2018-09-28T02:22:11.524Z,58.60
2018-09-28T02:22:43.341Z,58.70
2018-09-28T02:23:15.174Z,58.50
2018-09-28T02:23:47.023Z,58.50
2018-09-28T02:24:19.109Z,58.40
2018-09-28T02:24:50.912Z,58.40
2018-09-28T02:25:22.797Z,58.40
2018-09-28T02:25:54.607Z,58.40
2018-09-28T02:26:26.379Z,58.50
2018-09-28T02:26:58.207Z,58.40
2018-09-28T02:27:30.192Z,58.30
2018-09-28T02:28:02.013Z,58.20
2018-09-28T02:28:33.905Z,58.20
2018-09-28T02:29:05.670Z,58.10
2018-09-28T02:29:37.609Z,58.20
2018-09-28T02:30:09.464Z,58.30
2018-09-28T02:30:41.274Z,58.40
2018-09-28T02:31:13.107Z,58.50
2018-09-28T02:31:44.934Z,58.50
2018-09-28T02:32:16.745Z,58.40
2018-09-28T02:32:48.538Z,58.40
2018-09-28T02:33:20.581Z,59.00
2018-09-28T02:33:52.486Z,58.40
2018-09-28T02:34:24.372Z,58.40
2018-09-28T02:34:56.203Z,58.50
2018-09-28T02:35:27.984Z,58.40
2018-09-28T02:35:59.802Z,58.50
2018-09-28T02:36:31.597Z,58.30
2018-09-28T02:37:03.654Z,58.40
2018-09-28T02:37:35.456Z,58.30
2018-09-28T02:38:07.285Z,58.10
2018-09-28T02:38:39.332Z,58.20
2018-09-28T02:39:11.105Z,58.20
2018-09-28T02:39:42.941Z,58.30
2018-09-28T02:40:14.845Z,58.30
2018-09-28T02:40:46.684Z,58.20
2018-09-28T02:41:18.597Z,58.20
2018-09-28T02:41:50.605Z,58.20
2018-09-28T02:42:22.513Z,58.10
2018-09-28T02:42:54.412Z,58.10
2018-09-28T02:43:26.293Z,58.20
2018-09-28T02:43:58.142Z,58.30
2018-09-28T02:44:30.003Z,58.30
2018-09-28T02:45:01.881Z,58.30
2018-09-28T02:45:33.722Z,58.10
2018-09-28T02:46:05.493Z,58.20
2018-09-28T02:46:37.442Z,58.10
2018-09-28T02:47:09.519Z,58.10
2018-09-28T02:47:41.503Z,58.10
2018-09-28T02:48:13.497Z,58.00
2018-09-28T02:48:45.287Z,58.00
2018-09-28T02:49:17.342Z,58.10
2018-09-28T02:49:49.167Z,58.00
2018-09-28T02:50:20.961Z,58.00
2018-09-28T02:50:52.772Z,57.90
2018-09-28T02:51:24.653Z,57.90
2018-09-28T02:51:56.537Z,57.80
2018-09-28T02:52:28.520Z,57.50
2018-09-28T02:53:00.498Z,57.90
2018-09-28T02:53:32.390Z,58.00
2018-09-28T02:54:04.342Z,57.90
2018-09-28T02:54:36.190Z,58.40
2018-09-28T02:55:08.574Z,57.80
2018-09-28T02:55:40.456Z,57.90
2018-09-28T02:56:12.382Z,58.00
2018-09-28T02:56:44.256Z,58.00
2018-09-28T02:57:16.251Z,58.00
2018-09-28T02:57:48.232Z,58.00
2018-09-28T02:58:20.073Z,58.00
2018-09-28T02:58:51.919Z,57.90
2018-09-28T02:59:23.944Z,57.90
2018-09-28T02:59:55.873Z,57.90
2018-09-28T03:00:27.852Z,57.90
2018-09-28T03:00:59.850Z,57.90
2018-09-28T03:01:31.629Z,57.80
2018-09-28T03:02:03.601Z,58.40
2018-09-28T03:02:35.606Z,57.80
2018-09-28T03:03:07.376Z,57.70
2018-09-28T03:03:39.241Z,58.20
2018-09-28T03:04:11.177Z,57.80
2018-09-28T03:04:43.110Z,57.70
2018-09-28T03:05:14.980Z,57.80
2018-09-28T03:05:47.092Z,58.50
2018-09-28T03:06:19.054Z,57.80
2018-09-28T03:06:51.042Z,57.30
2018-09-28T03:07:23.021Z,57.80
2018-09-28T03:07:54.871Z,57.80
2018-09-28T03:08:26.696Z,57.70
2018-09-28T03:08:58.541Z,57.70
2018-09-28T03:09:30.693Z,57.70
2018-09-28T03:10:02.592Z,57.70
2018-09-28T03:10:34.567Z,57.60
2018-09-28T03:11:06.430Z,57.60
2018-09-28T03:11:38.496Z,57.70
2018-09-28T03:12:10.386Z,57.60
2018-09-28T03:12:42.352Z,57.50
2018-09-28T03:13:14.310Z,58.20
2018-09-28T03:13:46.437Z,57.60
2018-09-28T03:14:18.240Z,57.60
2018-09-28T03:14:50.126Z,57.60
2018-09-28T03:15:21.940Z,57.50
2018-09-28T03:15:53.961Z,57.40
2018-09-28T03:16:25.731Z,57.30
2018-09-28T03:16:57.568Z,57.30
2018-09-28T03:17:29.451Z,57.30
2018-09-28T03:18:01.283Z,57.40
2018-09-28T03:18:33.330Z,58.00
2018-09-28T03:19:05.235Z,57.40
2018-09-28T03:19:37.115Z,58.00
2018-09-28T03:20:08.960Z,56.80
2018-09-28T03:20:41.119Z,57.30
2018-09-28T03:21:13.015Z,57.30
2018-09-28T03:21:44.881Z,57.20
2018-09-28T03:22:16.734Z,57.40
2018-09-28T03:22:48.563Z,57.20
2018-09-28T03:23:20.362Z,57.30
2018-09-28T03:23:52.190Z,57.20
2018-09-28T03:24:24.201Z,57.10
2018-09-28T03:24:56.077Z,57.10
2018-09-28T03:25:27.845Z,57.60
2018-09-28T03:25:59.838Z,57.20
2018-09-28T03:26:31.873Z,57.20
2018-09-28T03:27:03.677Z,57.30
2018-09-28T03:27:35.514Z,57.50
2018-09-28T03:28:07.659Z,57.20
2018-09-28T03:28:41.283Z,57.10
2018-09-28T03:29:14.157Z,57.10
2018-09-28T03:29:48.532Z,57.10
2018-09-28T03:30:20.385Z,57.10
2018-09-28T03:30:52.274Z,57.80
2018-09-28T03:31:24.253Z,57.10
2018-09-28T03:31:56.109Z,57.30
2018-09-28T03:32:27.984Z,57.30
2018-09-28T03:32:59.948Z,57.20
2018-09-28T03:33:31.795Z,57.20
2018-09-28T03:34:03.596Z,57.20
2018-09-28T03:34:35.559Z,57.10
2018-09-28T03:35:07.433Z,57.20
2018-09-28T03:35:39.326Z,57.20
2018-09-28T03:36:11.422Z,57.10
2018-09-28T03:36:43.554Z,57.10
2018-09-28T03:37:15.393Z,57.10
2018-09-28T03:37:47.485Z,57.70
2018-09-28T03:38:19.336Z,57.10
2018-09-28T03:38:51.167Z,57.10
2018-09-28T03:39:23.020Z,57.10
2018-09-28T03:39:54.854Z,57.10
2018-09-28T03:40:26.729Z,57.00
2018-09-28T03:40:58.596Z,57.00
2018-09-28T03:41:30.414Z,57.00
2018-09-28T03:42:02.235Z,57.00
2018-09-28T03:42:34.187Z,56.90
2018-09-28T03:43:06.036Z,56.90
2018-09-28T03:43:37.957Z,56.90
2018-09-28T03:44:09.781Z,56.80
2018-09-28T03:44:41.594Z,56.90
2018-09-28T03:45:13.392Z,56.80
2018-09-28T03:45:45.237Z,56.80
2018-09-28T03:46:17.045Z,56.80
2018-09-28T03:46:48.917Z,57.20
2018-09-28T03:47:20.773Z,56.80
2018-09-28T03:47:52.688Z,57.30
2018-09-28T03:48:24.541Z,56.80
2018-09-28T03:48:56.528Z,56.90
2018-09-28T03:49:28.482Z,56.80
2018-09-28T03:50:00.318Z,56.80
2018-09-28T03:50:32.197Z,56.90
2018-09-28T03:51:04.310Z,56.90
2018-09-28T03:51:36.397Z,56.80
2018-09-28T03:52:08.238Z,56.80
2018-09-28T03:52:40.257Z,56.80
2018-09-28T03:53:12.127Z,57.00
2018-09-28T03:53:44.108Z,56.80
2018-09-28T03:54:16.059Z,56.90
2018-09-28T03:54:47.940Z,56.90
2018-09-28T03:55:19.763Z,56.80
2018-09-28T03:55:51.651Z,56.80
2018-09-28T03:56:23.628Z,56.80
2018-09-28T03:56:55.531Z,56.80
2018-09-28T03:57:27.549Z,56.70
2018-09-28T03:57:59.408Z,56.70
2018-09-28T03:58:31.470Z,56.70
2018-09-28T03:59:03.303Z,56.80
2018-09-28T03:59:35.129Z,56.70
2018-09-28T04:00:07.029Z,57.10
2018-09-28T04:00:38.888Z,56.80
2018-09-28T04:01:10.732Z,56.80
2018-09-28T04:01:42.738Z,56.70
2018-09-28T04:02:14.699Z,57.10
2018-09-28T04:02:46.543Z,56.60
2018-09-28T04:03:18.419Z,56.70
2018-09-28T04:03:50.431Z,56.80
2018-09-28T04:04:22.237Z,56.70
2018-09-28T04:04:54.005Z,56.70
2018-09-28T04:05:26.079Z,56.60
2018-09-28T04:05:57.908Z,56.80
2018-09-28T04:06:29.959Z,56.70
2018-09-28T04:07:01.900Z,56.70
2018-09-28T04:07:33.909Z,56.60
2018-09-28T04:08:05.825Z,56.60
2018-09-28T04:08:37.628Z,56.80
2018-09-28T04:09:09.534Z,56.70
2018-09-28T04:09:41.549Z,56.70
2018-09-28T04:10:13.390Z,56.70
2018-09-28T04:10:45.249Z,56.70
2018-09-28T04:11:17.094Z,56.60
2018-09-28T04:11:48.958Z,56.60
2018-09-28T04:12:20.943Z,56.70
2018-09-28T04:12:52.949Z,56.60
2018-09-28T04:18:15.023Z,56.60
2018-09-28T04:18:47.029Z,56.60
2018-09-28T04:19:18.840Z,56.60
2018-09-28T04:19:50.771Z,56.60
2018-09-28T04:20:22.642Z,57.20
2018-09-28T04:20:54.520Z,56.50
2018-09-28T04:21:26.401Z,56.50
2018-09-28T04:21:58.412Z,56.50
2018-09-28T04:22:30.740Z,56.50
2018-09-28T04:23:02.561Z,56.50
2018-09-28T04:23:34.430Z,56.50
2018-09-28T04:24:06.229Z,56.50
2018-09-28T04:24:38.332Z,56.50
2018-09-28T04:25:10.132Z,56.50
2018-09-28T04:25:41.996Z,56.70
2018-09-28T04:26:13.786Z,57.20
2018-09-28T04:26:45.823Z,56.60
2018-09-28T04:27:17.803Z,56.50
2018-09-28T04:27:49.892Z,56.40
2018-09-28T04:28:21.951Z,56.60
2018-09-28T04:28:53.811Z,56.60
2018-09-28T04:29:25.633Z,56.50
2018-09-28T04:29:57.555Z,56.50
2018-09-28T04:30:29.589Z,56.40
2018-09-28T04:31:01.660Z,56.40
2018-09-28T04:31:33.494Z,56.50
2018-09-28T04:32:05.308Z,56.40
2018-09-28T04:32:37.093Z,56.40
2018-09-28T04:33:08.915Z,56.40
2018-09-28T04:33:40.871Z,56.40
2018-09-28T04:34:12.853Z,56.50
2018-09-28T04:34:44.760Z,56.50
2018-09-28T04:35:16.577Z,56.60
2018-09-28T04:35:48.692Z,56.50
2018-09-28T04:36:20.532Z,56.40
2018-09-28T04:36:52.525Z,56.50
2018-09-28T04:37:24.648Z,56.40
2018-09-28T04:37:56.831Z,56.50
2018-09-28T04:38:28.664Z,56.40
2018-09-28T04:39:00.596Z,56.40
2018-09-28T04:39:32.461Z,56.40
2018-09-28T04:40:04.392Z,56.40
2018-09-28T04:40:36.263Z,56.50
2018-09-28T04:41:08.322Z,56.50
2018-09-28T04:41:40.445Z,56.50
2018-09-28T04:42:12.341Z,56.50
2018-09-28T04:42:44.173Z,56.50
2018-09-28T04:43:16.097Z,56.40
2018-09-28T04:43:48.020Z,56.40
2018-09-28T04:44:19.836Z,56.40
2018-09-28T04:44:51.716Z,56.30
2018-09-28T04:45:23.643Z,56.40
2018-09-28T04:45:55.535Z,56.40
2018-09-28T04:46:27.374Z,56.40
2018-09-28T04:46:59.434Z,56.50
2018-09-28T04:47:31.353Z,56.50
2018-09-28T04:48:03.344Z,56.40
2018-09-28T04:48:35.191Z,56.40
2018-09-28T04:49:07.142Z,56.30
2018-09-28T04:49:39.057Z,56.40
2018-09-28T04:50:10.983Z,56.40
2018-09-28T04:50:42.786Z,56.30
2018-09-28T04:51:14.566Z,56.30
2018-09-28T04:51:46.463Z,56.30
2018-09-28T04:52:18.306Z,56.20
2018-09-28T04:52:50.215Z,56.30
2018-09-28T04:53:22.116Z,56.30
2018-09-28T04:53:54.254Z,56.40
2018-09-28T04:54:26.060Z,56.30
2018-09-28T04:54:57.883Z,56.20
2018-09-28T04:55:29.901Z,56.50
2018-09-28T04:56:01.873Z,56.30
2018-09-28T04:56:33.694Z,56.30
2018-09-28T04:57:05.515Z,56.40
2018-09-28T04:57:37.476Z,56.30
2018-09-28T04:58:09.544Z,56.30
2018-09-28T04:58:41.340Z,56.30
2018-09-28T04:59:13.194Z,56.20
2018-09-28T04:59:45.158Z,56.00
2018-09-28T05:00:16.959Z,56.30
2018-09-28T05:00:48.975Z,56.30
2018-09-28T05:01:20.793Z,56.30
2018-09-28T05:01:52.786Z,56.30
2018-09-28T05:02:24.590Z,56.30
2018-09-28T05:02:56.369Z,56.20
2018-09-28T05:03:28.150Z,56.30
2018-09-28T05:04:00.167Z,56.30
2018-09-28T05:04:32.123Z,56.30
2018-09-28T05:05:03.962Z,56.30
2018-09-28T05:05:36.051Z,56.40
2018-09-28T05:06:07.852Z,56.40
2018-09-28T05:06:39.723Z,56.30
2018-09-28T05:07:11.536Z,56.30
2018-09-28T05:07:43.457Z,56.30
2018-09-28T05:08:15.457Z,56.40
2018-09-28T05:08:47.316Z,56.40
2018-09-28T05:09:19.306Z,56.90
2018-09-28T05:09:51.293Z,56.30
2018-09-28T05:10:23.216Z,56.20
2018-09-28T05:10:55.135Z,56.20
2018-09-28T05:11:26.942Z,56.20
2018-09-28T05:11:58.727Z,56.30
2018-09-28T05:12:30.515Z,56.20
2018-09-28T05:13:02.414Z,56.20
2018-09-28T05:13:34.455Z,56.20
2018-09-28T05:14:06.475Z,56.20
2018-09-28T05:14:38.267Z,56.20
2018-09-28T05:15:10.031Z,56.10
2018-09-28T05:15:41.929Z,56.20
2018-09-28T05:16:13.747Z,56.10
2018-09-28T05:16:45.573Z,56.10
2018-09-28T05:17:17.468Z,56.20
2018-09-28T05:17:49.287Z,56.20
2018-09-28T05:18:21.118Z,56.20
2018-09-28T05:18:53.197Z,56.20
2018-09-28T05:19:25.252Z,56.20
2018-09-28T05:19:57.276Z,56.10
2018-09-28T05:20:29.227Z,56.10
2018-09-28T05:21:01.018Z,56.80
2018-09-28T05:21:32.810Z,56.20
2018-09-28T05:22:04.627Z,56.10
2018-09-28T05:22:36.442Z,56.30
2018-09-28T05:23:08.465Z,56.20
2018-09-28T05:23:40.287Z,56.30
2018-09-28T05:24:12.098Z,56.30
2018-09-28T05:24:43.927Z,56.50
2018-09-28T05:25:15.941Z,56.20
2018-09-28T05:25:48.097Z,56.30
2018-09-28T05:26:19.927Z,56.20
2018-09-28T05:26:51.780Z,56.30
2018-09-28T05:27:23.687Z,56.20
2018-09-28T05:27:55.561Z,56.30
2018-09-28T05:28:27.488Z,56.20
2018-09-28T05:28:59.293Z,56.10
2018-09-28T05:29:31.128Z,56.10
2018-09-28T05:30:02.915Z,56.10
2018-09-28T05:30:34.940Z,56.10
2018-09-28T05:31:06.811Z,56.00
2018-09-28T05:31:39.009Z,56.60
2018-09-28T05:32:11.272Z,56.00
2018-09-28T05:32:43.489Z,56.20
2018-09-28T05:33:15.604Z,56.20
2018-09-28T05:33:47.445Z,56.80
2018-09-28T05:34:19.439Z,56.10
2018-09-28T05:34:51.476Z,56.10
2018-09-28T05:35:23.311Z,56.00
2018-09-28T05:35:55.131Z,56.20
2018-09-28T05:36:26.908Z,56.10
2018-09-28T05:36:58.833Z,56.10
2018-09-28T05:37:30.718Z,56.10
2018-09-28T05:38:02.719Z,56.10
2018-09-28T05:38:34.539Z,56.10
2018-09-28T05:39:06.472Z,56.10
2018-09-28T05:40:19.079Z,56.10
2018-09-28T05:40:51.119Z,56.00
2018-09-28T05:41:22.878Z,56.00
2018-09-28T05:41:54.830Z,56.00
2018-09-28T05:42:26.694Z,56.00
2018-09-28T05:42:58.470Z,56.00
2018-09-28T05:43:30.321Z,56.00
2018-09-28T05:44:02.405Z,56.00
2018-09-28T05:44:34.231Z,56.00
2018-09-28T05:45:06.036Z,56.10
2018-09-28T05:45:37.831Z,56.10
2018-09-28T05:46:09.716Z,56.00
2018-09-28T05:46:41.753Z,56.00
2018-09-28T05:47:13.611Z,56.00
2018-09-28T05:47:45.467Z,56.20
2018-09-28T05:48:17.544Z,56.10
2018-09-28T05:48:49.347Z,56.10
2018-09-28T05:49:21.210Z,56.10
2018-09-28T05:49:53.145Z,56.00
2018-09-28T05:50:24.987Z,56.00
2018-09-28T05:50:56.756Z,56.00
2018-09-28T05:51:28.641Z,56.00
2018-09-28T05:52:00.595Z,56.00
2018-09-28T05:52:32.480Z,56.00
2018-09-28T05:53:04.525Z,56.00
2018-09-28T05:53:36.332Z,55.90
2018-09-28T05:54:08.164Z,55.90
2018-09-28T05:54:39.982Z,55.90
2018-09-28T05:55:11.790Z,56.00
2018-09-28T05:55:43.643Z,56.00
2018-09-28T05:56:15.454Z,56.10
2018-09-28T05:56:47.255Z,56.00
2018-09-28T05:57:19.224Z,56.00
2018-09-28T05:57:51.156Z,56.20
2018-09-28T05:58:23.227Z,56.50
2018-09-28T05:58:55.484Z,56.20
2018-09-28T05:59:27.306Z,56.20
2018-09-28T05:59:59.433Z,56.10
2018-09-28T06:01:13.477Z,56.10
2018-09-28T06:01:45.324Z,56.00
2018-09-28T06:02:17.182Z,56.00
2018-09-28T06:02:49.033Z,56.10
2018-09-28T06:03:20.853Z,56.00
2018-09-28T06:03:52.666Z,56.00
2018-09-28T06:04:24.748Z,56.10
2018-09-28T06:04:56.604Z,56.00
2018-09-28T06:05:28.610Z,56.20
2018-09-28T06:06:00.813Z,56.00
2018-09-28T06:06:32.988Z,56.00
2018-09-28T06:07:04.821Z,56.20
2018-09-28T06:07:36.755Z,56.10
2018-09-28T06:08:08.836Z,56.10
2018-09-28T06:08:40.665Z,56.10
2018-09-28T06:09:12.512Z,56.10
2018-09-28T06:09:44.317Z,56.10
2018-09-28T06:10:16.235Z,56.10
2018-09-28T06:10:48.054Z,56.10
2018-09-28T06:11:20.065Z,56.10
2018-09-28T06:11:52.180Z,56.10
2018-09-28T06:12:23.949Z,56.10
2018-09-28T06:12:55.937Z,56.10
2018-09-28T06:13:27.917Z,56.10
2018-09-28T06:13:59.735Z,56.10
2018-09-28T06:14:31.638Z,56.20
2018-09-28T06:15:03.565Z,56.10
2018-09-28T06:15:35.418Z,56.00
2018-09-28T06:16:07.292Z,56.00
2018-09-28T06:16:39.365Z,56.10
2018-09-28T06:17:11.272Z,56.10
2018-09-28T06:17:43.164Z,56.10
2018-09-28T06:18:15.385Z,56.10
2018-09-28T06:18:47.240Z,56.10
2018-09-28T06:19:19.345Z,56.10
2018-09-28T06:19:51.235Z,56.20
2018-09-28T06:20:23.141Z,56.10
2018-09-28T06:20:55.155Z,56.20
2018-09-28T06:21:27.026Z,56.20
2018-09-28T06:21:59.112Z,56.10
2018-09-28T06:22:30.969Z,56.10
2018-09-28T06:23:02.840Z,56.10
2018-09-28T06:23:34.671Z,56.10
2018-09-28T06:24:06.534Z,56.20
2018-09-28T06:24:38.661Z,56.10
2018-09-28T06:25:10.467Z,56.10
2018-09-28T06:25:42.297Z,56.10
2018-09-28T06:26:14.214Z,56.10
2018-09-28T06:26:46.018Z,56.00
2018-09-28T06:27:17.986Z,56.10
2018-09-28T06:27:50.184Z,56.00
2018-09-28T06:28:22.228Z,56.00
2018-09-28T06:28:54.112Z,56.10
2018-09-28T06:29:26.057Z,56.00
2018-09-28T06:29:58.048Z,56.10
2018-09-28T06:30:30.018Z,56.00
2018-09-28T06:31:01.812Z,56.00
2018-09-28T06:31:33.711Z,56.00
2018-09-28T06:32:05.615Z,56.00
2018-09-28T06:32:37.444Z,56.10
2018-09-28T06:33:09.298Z,56.20
2018-09-28T06:33:41.251Z,56.10
2018-09-28T06:34:13.200Z,56.40
2018-09-28T06:34:45.141Z,56.20
2018-09-28T06:35:16.989Z,56.70
2018-09-28T06:35:48.821Z,56.10
2018-09-28T06:36:20.869Z,56.20
2018-09-28T06:36:52.943Z,56.10
2018-09-28T06:37:24.879Z,56.20
2018-09-28T06:37:56.847Z,56.20
2018-09-28T06:38:28.779Z,56.30
2018-09-28T06:39:00.649Z,56.20
2018-09-28T06:39:32.708Z,56.20
2018-09-28T06:40:04.533Z,56.20
2018-09-28T06:40:36.420Z,56.20
2018-09-28T06:41:08.249Z,56.20
2018-09-28T06:41:40.144Z,56.10
2018-09-28T06:42:12.210Z,56.20
2018-09-28T06:42:44.169Z,56.30
2018-09-28T06:43:16.272Z,56.20
2018-09-28T06:43:48.146Z,56.10
2018-09-28T06:44:19.931Z,56.40
2018-09-28T06:44:51.910Z,56.20
2018-09-28T06:45:23.678Z,56.10
2018-09-28T06:45:55.463Z,56.70
2018-09-28T06:46:27.490Z,56.10
2018-09-28T06:46:59.444Z,56.10
2018-09-28T06:47:31.249Z,56.60
2018-09-28T06:48:07.603Z,56.10
2018-09-28T06:48:42.812Z,56.00
2018-09-28T06:49:14.694Z,56.00
2018-09-28T06:49:46.530Z,56.00
2018-09-28T06:50:18.391Z,55.90
2018-09-28T06:50:50.249Z,55.90
2018-09-28T06:51:22.315Z,55.80
2018-09-28T06:51:54.267Z,55.80
2018-09-28T06:52:26.084Z,56.10
2018-09-28T06:52:57.931Z,56.00
2018-09-28T06:53:29.753Z,55.90
2018-09-28T06:54:01.573Z,56.00
2018-09-28T06:54:33.553Z,56.00
2018-09-28T06:55:05.510Z,55.80
2018-09-28T06:55:37.306Z,55.90
2018-09-28T06:56:09.189Z,55.80
2018-09-28T06:56:41.092Z,55.80
2018-09-28T06:57:12.919Z,55.80